Kumamoto, Japan
Current Conditions -  °F | °C
As of 5:00 PM on Sunday 23 Nov 2014 (Local Time) from RJFT Reporting Station
Broken Clouds Broken Clouds  
Wind Chill: 59°   Ceiling: Unl
Heat Index: 59°   Visibility: 6mi
Dew Point: 52°   Wind: 2mph
Humidity: 77%   Direction: 110°ESE
Pressure: 30.15"   Gusts: NA
Location:  32.8°N, 130.71°E
Report Text: RJFT 230800Z 11002KT 9999 FEW040 BKN/// 15/11 Q1021
Loading
Personal Weather Stations






























Interactive Weather Map New forecast layout! Learn more

10-Day Weather Forecast

Advertisements
Track Severe Weather on mobile